sensor_id;sensor_type;location;lat;lon;timestamp;pressure;altitude;pressure_sealevel;temperature;humidity
34237;BME280;20501;45.956;13.632;2023-04-25T00:01:54;99985.03;;;12.01;74.07
34237;BME280;20501;45.956;13.632;2023-04-25T00:04:21;99986.09;;;13.49;73.17
34237;BME280;20501;45.956;13.632;2023-04-25T00:06:47;99983.38;;;13.49;72.48
34237;BME280;20501;45.956;13.632;2023-04-25T00:09:13;99988.47;;;14.00;69.47
34237;BME280;20501;45.956;13.632;2023-04-25T00:11:39;99981.13;;;14.09;70.09
34237;BME280;20501;45.956;13.632;2023-04-25T00:14:05;99984.97;;;14.15;69.97
34237;BME280;20501;45.956;13.632;2023-04-25T00:16:31;99985.19;;;14.36;69.02
34237;BME280;20501;45.956;13.632;2023-04-25T00:18:59;99974.59;;;14.50;68.55
34237;BME280;20501;45.956;13.632;2023-04-25T00:21:25;99976.00;;;14.46;68.45
34237;BME280;20501;45.956;13.632;2023-04-25T00:23:52;99973.38;;;14.52;68.45
34237;BME280;20501;45.956;13.632;2023-04-25T00:26:18;99968.72;;;12.52;70.74
34237;BME280;20501;45.956;13.632;2023-04-25T00:28:43;99979.22;;;12.89;73.13
34237;BME280;20501;45.956;13.632;2023-04-25T00:31:08;99966.44;;;13.39;71.63
34237;BME280;20501;45.956;13.632;2023-04-25T00:33:34;99969.25;;;13.62;71.10
34237;BME280;20501;45.956;13.632;2023-04-25T00:36:00;99968.34;;;13.78;70.18
34237;BME280;20501;45.956;13.632;2023-04-25T00:38:25;99970.75;;;12.50;72.08
34237;BME280;20501;45.956;13.632;2023-04-25T00:40:50;99970.16;;;11.36;76.95
34237;BME280;20501;45.956;13.632;2023-04-25T00:43:16;99971.94;;;11.27;75.66
34237;BME280;20501;45.956;13.632;2023-04-25T00:45:42;99981.16;;;12.12;76.99
34237;BME280;20501;45.956;13.632;2023-04-25T00:48:08;99976.72;;;12.03;75.03
34237;BME280;20501;45.956;13.632;2023-04-25T00:50:34;99978.03;;;12.75;74.54
34237;BME280;20501;45.956;13.632;2023-04-25T00:53:01;99983.44;;;13.89;70.17
34237;BME280;20501;45.956;13.632;2023-04-25T00:55:27;99980.81;;;14.04;69.33
34237;BME280;20501;45.956;13.632;2023-04-25T00:57:52;99980.84;;;14.27;67.75
34237;BME280;20501;45.956;13.632;2023-04-25T01:00:18;99983.03;;;14.00;69.37
34237;BME280;20501;45.956;13.632;2023-04-25T01:02:45;99975.97;;;13.43;69.91
34237;BME280;20501;45.956;13.632;2023-04-25T01:05:11;99971.19;;;13.53;71.43
34237;BME280;20501;45.956;13.632;2023-04-25T01:07:37;99960.81;;;13.57;70.56
34237;BME280;20501;45.956;13.632;2023-04-25T01:10:04;99960.47;;;12.03;71.90
34237;BME280;20501;45.956;13.632;2023-04-25T01:12:31;99958.34;;;11.37;76.17
34237;BME280;20501;45.956;13.632;2023-04-25T01:14:56;99955.28;;;11.75;77.06
34237;BME280;20501;45.956;13.632;2023-04-25T01:17:22;99963.44;;;12.34;74.82
34237;BME280;20501;45.956;13.632;2023-04-25T01:19:47;99963.72;;;13.47;72.07
34237;BME280;20501;45.956;13.632;2023-04-25T01:22:14;99959.50;;;12.12;71.86
34237;BME280;20501;45.956;13.632;2023-04-25T01:24:40;99962.22;;;10.18;80.97
34237;BME280;20501;45.956;13.632;2023-04-25T01:27:06;99952.97;;;10.48;81.27
34237;BME280;20501;45.956;13.632;2023-04-25T01:29:31;99958.25;;;11.29;79.81
34237;BME280;20501;45.956;13.632;2023-04-25T01:31:57;99951.44;;;11.94;75.21
34237;BME280;20501;45.956;13.632;2023-04-25T01:34:24;99962.91;;;12.22;74.40
34237;BME280;20501;45.956;13.632;2023-04-25T01:36:50;99961.38;;;12.36;73.49
34237;BME280;20501;45.956;13.632;2023-04-25T01:39:20;99958.53;;;12.96;73.80
34237;BME280;20501;45.956;13.632;2023-04-25T01:41:46;99963.75;;;13.30;72.58
34237;BME280;20501;45.956;13.632;2023-04-25T01:44:12;99956.63;;;13.13;72.56
34237;BME280;20501;45.956;13.632;2023-04-25T01:46:37;99949.53;;;12.21;71.20
34237;BME280;20501;45.956;13.632;2023-04-25T01:49:03;99954.09;;;12.20;69.80
34237;BME280;20501;45.956;13.632;2023-04-25T01:51:28;99954.25;;;13.43;71.81
34237;BME280;20501;45.956;13.632;2023-04-25T01:53:55;99959.56;;;12.70;72.92
34237;BME280;20501;45.956;13.632;2023-04-25T01:56:20;99949.53;;;13.20;69.97
34237;BME280;20501;45.956;13.632;2023-04-25T01:58:46;99949.72;;;13.02;71.10
34237;BME280;20501;45.956;13.632;2023-04-25T02:01:11;99952.78;;;12.91;70.22
34237;BME280;20501;45.956;13.632;2023-04-25T02:03:37;99949.22;;;11.81;70.99
34237;BME280;20501;45.956;13.632;2023-04-25T02:06:02;99954.44;;;13.08;72.09
34237;BME280;20501;45.956;13.632;2023-04-25T02:08:28;99955.84;;;13.69;69.90
34237;BME280;20501;45.956;13.632;2023-04-25T02:10:53;99955.94;;;13.92;69.13
34237;BME280;20501;45.956;13.632;2023-04-25T02:13:19;99954.06;;;14.24;67.90
34237;BME280;20501;45.956;13.632;2023-04-25T02:15:44;99962.22;;;13.84;68.98
34237;BME280;20501;45.956;13.632;2023-04-25T02:18:09;99953.97;;;12.72;72.11
34237;BME280;20501;45.956;13.632;2023-04-25T02:20:36;99955.50;;;12.74;68.97
34237;BME280;20501;45.956;13.632;2023-04-25T02:23:02;99951.44;;;12.62;71.95
34237;BME280;20501;45.956;13.632;2023-04-25T02:25:28;99944.69;;;11.21;75.47
34237;BME280;20501;45.956;13.632;2023-04-25T02:27:53;99945.88;;;11.53;72.15
34237;BME280;20501;45.956;13.632;2023-04-25T02:30:19;99950.38;;;10.29;79.82
34237;BME280;20501;45.956;13.632;2023-04-25T02:32:45;99947.63;;;11.27;78.51
34237;BME280;20501;45.956;13.632;2023-04-25T02:35:10;99938.19;;;10.79;78.63
34237;BME280;20501;45.956;13.632;2023-04-25T02:37:38;99946.50;;;10.86;78.39
34237;BME280;20501;45.956;13.632;2023-04-25T02:40:04;99951.56;;;10.62;75.78
34237;BME280;20501;45.956;13.632;2023-04-25T02:42:30;99959.38;;;11.44;76.42
34237;BME280;20501;45.956;13.632;2023-04-25T02:44:55;99953.97;;;12.63;73.57
34237;BME280;20501;45.956;13.632;2023-04-25T02:47:21;99948.69;;;11.69;74.91
34237;BME280;20501;45.956;13.632;2023-04-25T02:49:47;99946.22;;;10.71;75.95
34237;BME280;20501;45.956;13.632;2023-04-25T02:52:12;99942.13;;;12.64;72.56
34237;BME280;20501;45.956;13.632;2023-04-25T02:54:39;99942.41;;;13.19;71.67
34237;BME280;20501;45.956;13.632;2023-04-25T02:57:05;99940.03;;;13.81;69.01
34237;BME280;20501;45.956;13.632;2023-04-25T02:59:30;99942.19;;;13.45;68.57
34237;BME280;20501;45.956;13.632;2023-04-25T03:01:55;99939.03;;;13.09;68.74
34237;BME280;20501;45.956;13.632;2023-04-25T03:04:21;99931.59;;;12.36;71.73
34237;BME280;20501;45.956;13.632;2023-04-25T03:06:49;99939.06;;;10.43;75.64
34237;BME280;20501;45.956;13.632;2023-04-25T03:09:14;99938.59;;;10.92;79.03
34237;BME280;20501;45.956;13.632;2023-04-25T03:11:40;99943.34;;;11.51;73.50
34237;BME280;20501;45.956;13.632;2023-04-25T03:14:05;99940.31;;;11.97;75.68
34237;BME280;20501;45.956;13.632;2023-04-25T03:16:31;99937.72;;;12.63;73.42
34237;BME280;20501;45.956;13.632;2023-04-25T03:18:57;99939.59;;;12.63;72.09
34237;BME280;20501;45.956;13.632;2023-04-25T03:21:22;99928.69;;;13.12;71.08
34237;BME280;20501;45.956;13.632;2023-04-25T03:23:48;99933.78;;;12.16;74.05
34237;BME280;20501;45.956;13.632;2023-04-25T03:26:13;99937.19;;;11.33;76.86
34237;BME280;20501;45.956;13.632;2023-04-25T03:28:39;99932.13;;;11.38;74.55
34237;BME280;20501;45.956;13.632;2023-04-25T03:31:05;99930.88;;;12.10;72.96
34237;BME280;20501;45.956;13.632;2023-04-25T03:33:31;99938.56;;;12.72;71.73
34237;BME280;20501;45.956;13.632;2023-04-25T03:35:56;99935.38;;;11.92;74.83
34237;BME280;20501;45.956;13.632;2023-04-25T03:38:22;99930.09;;;10.25;76.91
34237;BME280;20501;45.956;13.632;2023-04-25T03:40:47;99933.16;;;9.94;79.12
34237;BME280;20501;45.956;13.632;2023-04-25T03:43:12;99930.59;;;10.38;76.11
34237;BME280;20501;45.956;13.632;2023-04-25T03:45:38;99943.38;;;10.54;78.29
34237;BME280;20501;45.956;13.632;2023-04-25T03:48:03;99932.22;;;10.03;79.35
34237;BME280;20501;45.956;13.632;2023-04-25T03:50:29;99933.78;;;10.23;76.59
34237;BME280;20501;45.956;13.632;2023-04-25T03:52:54;99935.00;;;10.11;78.89
34237;BME280;20501;45.956;13.632;2023-04-25T03:55:20;99941.25;;;10.84;75.82
34237;BME280;20501;45.956;13.632;2023-04-25T03:57:46;99935.53;;;11.40;73.56
34237;BME280;20501;45.956;13.632;2023-04-25T04:00:12;99942.13;;;12.73;72.65
34237;BME280;20501;45.956;13.632;2023-04-25T04:02:37;99930.72;;;13.10;70.85
34237;BME280;20501;45.956;13.632;2023-04-25T04:05:04;99934.03;;;13.54;68.60
34237;BME280;20501;45.956;13.632;2023-04-25T04:07:30;99935.31;;;13.01;68.99
34237;BME280;20501;45.956;13.632;2023-04-25T04:09:58;99921.72;;;11.51;74.58
34237;BME280;20501;45.956;13.632;2023-04-25T04:12:23;99931.88;;;13.32;70.08
34237;BME280;20501;45.956;13.632;2023-04-25T04:14:49;99926.28;;;13.26;67.03
34237;BME280;20501;45.956;13.632;2023-04-25T04:17:14;99922.47;;;12.62;71.45
34237;BME280;20501;45.956;13.632;2023-04-25T04:19:40;99916.72;;;12.32;68.42
34237;BME280;20501;45.956;13.632;2023-04-25T04:22:05;99917.22;;;12.19;69.73
34237;BME280;20501;45.956;13.632;2023-04-25T04:24:31;99918.38;;;13.08;71.02
34237;BME280;20501;45.956;13.632;2023-04-25T04:26:56;99915.19;;;11.36;71.10
34237;BME280;20501;45.956;13.632;2023-04-25T04:29:22;99917.03;;;12.13;70.63
34237;BME280;20501;45.956;13.632;2023-04-25T04:31:48;99919.31;;;10.87;74.01
34237;BME280;20501;45.956;13.632;2023-04-25T04:34:14;99918.72;;;12.22;69.35
34237;BME280;20501;45.956;13.632;2023-04-25T04:36:41;99914.31;;;12.95;71.27
34237;BME280;20501;45.956;13.632;2023-04-25T04:39:07;99918.94;;;13.35;67.10
34237;BME280;20501;45.956;13.632;2023-04-25T04:41:34;99920.63;;;12.63;66.96
34237;BME280;20501;45.956;13.632;2023-04-25T04:43:59;99912.66;;;12.45;67.85
34237;BME280;20501;45.956;13.632;2023-04-25T04:46:26;99912.75;;;13.09;70.06
34237;BME280;20501;45.956;13.632;2023-04-25T04:48:53;99917.97;;;13.27;69.28
34237;BME280;20501;45.956;13.632;2023-04-25T04:51:18;99913.03;;;13.87;67.64
34237;BME280;20501;45.956;13.632;2023-04-25T04:53:44;99914.81;;;13.95;66.81
34237;BME280;20501;45.956;13.632;2023-04-25T04:56:09;99907.47;;;13.24;68.30
34237;BME280;20501;45.956;13.632;2023-04-25T04:58:36;99916.00;;;13.61;68.44
34237;BME280;20501;45.956;13.632;2023-04-25T05:01:02;99916.66;;;13.71;66.79
34237;BME280;20501;45.956;13.632;2023-04-25T05:03:27;99910.78;;;13.91;67.39
34237;BME280;20501;45.956;13.632;2023-04-25T05:05:53;99901.84;;;13.42;67.65
34237;BME280;20501;45.956;13.632;2023-04-25T05:08:18;99893.09;;;13.15;69.54
34237;BME280;20501;45.956;13.632;2023-04-25T05:10:44;99897.34;;;13.10;67.50
34237;BME280;20501;45.956;13.632;2023-04-25T05:13:09;99891.44;;;12.90;68.37
34237;BME280;20501;45.956;13.632;2023-04-25T05:15:34;99893.38;;;13.77;68.00
34237;BME280;20501;45.956;13.632;2023-04-25T05:18:00;99891.78;;;13.91;67.26
34237;BME280;20501;45.956;13.632;2023-04-25T05:20:26;99898.06;;;13.60;66.77
34237;BME280;20501;45.956;13.632;2023-04-25T05:22:52;99894.66;;;12.93;70.33
34237;BME280;20501;45.956;13.632;2023-04-25T05:25:17;99889.75;;;13.05;69.27
34237;BME280;20501;45.956;13.632;2023-04-25T05:27:43;99887.94;;;13.77;67.77
34237;BME280;20501;45.956;13.632;2023-04-25T05:30:08;99880.94;;;13.83;65.77
34237;BME280;20501;45.956;13.632;2023-04-25T05:32:34;99881.78;;;13.60;68.46
34237;BME280;20501;45.956;13.632;2023-04-25T05:35:00;99885.84;;;12.91;66.31
34237;BME280;20501;45.956;13.632;2023-04-25T05:37:26;99888.25;;;12.86;70.06
34237;BME280;20501;45.956;13.632;2023-04-25T05:39:51;99886.25;;;11.63;71.45
34237;BME280;20501;45.956;13.632;2023-04-25T05:42:17;99886.59;;;11.25;75.35
34237;BME280;20501;45.956;13.632;2023-04-25T05:44:42;99890.50;;;12.41;70.06
34237;BME280;20501;45.956;13.632;2023-04-25T05:47:08;99889.69;;;11.81;70.88
34237;BME280;20501;45.956;13.632;2023-04-25T05:49:34;99896.38;;;12.86;71.31
34237;BME280;20501;45.956;13.632;2023-04-25T05:52:00;99893.84;;;12.18;71.56
34237;BME280;20501;45.956;13.632;2023-04-25T05:54:25;99889.91;;;10.84;73.82
34237;BME280;20501;45.956;13.632;2023-04-25T05:56:50;99891.69;;;10.75;75.20
34237;BME280;20501;45.956;13.632;2023-04-25T05:59:16;99888.41;;;10.63;76.80
34237;BME280;20501;45.956;13.632;2023-04-25T06:01:41;99895.69;;;12.01;72.98
34237;BME280;20501;45.956;13.632;2023-04-25T06:04:07;99897.75;;;11.30;76.21
34237;BME280;20501;45.956;13.632;2023-04-25T06:06:32;99897.72;;;11.56;74.56
34237;BME280;20501;45.956;13.632;2023-04-25T06:08:58;99902.16;;;12.50;73.14
34237;BME280;20501;45.956;13.632;2023-04-25T06:11:23;99901.31;;;12.49;72.03
34237;BME280;20501;45.956;13.632;2023-04-25T06:13:48;99902.16;;;12.75;70.98
34237;BME280;20501;45.956;13.632;2023-04-25T06:16:14;99901.81;;;13.51;68.28
34237;BME280;20501;45.956;13.632;2023-04-25T06:18:39;99898.59;;;13.47;68.70
34237;BME280;20501;45.956;13.632;2023-04-25T06:21:05;99900.63;;;13.37;69.23
34237;BME280;20501;45.956;13.632;2023-04-25T06:23:30;99896.63;;;14.04;67.09
34237;BME280;20501;45.956;13.632;2023-04-25T06:25:56;99914.19;;;12.72;69.92
34237;BME280;20501;45.956;13.632;2023-04-25T06:28:21;99913.16;;;12.81;69.54
34237;BME280;20501;45.956;13.632;2023-04-25T06:30:48;99914.38;;;13.43;69.58
34237;BME280;20501;45.956;13.632;2023-04-25T06:33:13;99912.19;;;14.10;67.17
34237;BME280;20501;45.956;13.632;2023-04-25T06:35:38;99914.13;;;14.24;66.36
34237;BME280;20501;45.956;13.632;2023-04-25T06:38:04;99909.38;;;12.99;70.00
34237;BME280;20501;45.956;13.632;2023-04-25T06:40:29;99919.50;;;13.22;67.82
34237;BME280;20501;45.956;13.632;2023-04-25T06:42:55;99916.72;;;12.90;70.51
34237;BME280;20501;45.956;13.632;2023-04-25T06:45:20;99928.78;;;13.36;69.85
34237;BME280;20501;45.956;13.632;2023-04-25T06:47:46;99925.88;;;13.54;68.31
34237;BME280;20501;45.956;13.632;2023-04-25T06:50:11;99927.91;;;12.46;71.70
34237;BME280;20501;45.956;13.632;2023-04-25T06:52:37;99917.44;;;13.40;70.12
34237;BME280;20501;45.956;13.632;2023-04-25T06:55:02;99920.06;;;13.65;69.19
34237;BME280;20501;45.956;13.632;2023-04-25T06:57:29;99916.56;;;13.88;68.35
34237;BME280;20501;45.956;13.632;2023-04-25T06:59:54;99920.53;;;14.08;67.22
34237;BME280;20501;45.956;13.632;2023-04-25T07:02:20;99911.63;;;14.15;67.02
34237;BME280;20501;45.956;13.632;2023-04-25T07:04:46;99924.63;;;13.00;69.87
34237;BME280;20501;45.956;13.632;2023-04-25T07:07:12;99927.63;;;13.86;68.43
34237;BME280;20501;45.956;13.632;2023-04-25T07:09:37;99930.72;;;14.06;67.49
34237;BME280;20501;45.956;13.632;2023-04-25T07:12:03;99929.63;;;13.53;67.96
34237;BME280;20501;45.956;13.632;2023-04-25T07:14:28;99927.69;;;12.22;73.20
34237;BME280;20501;45.956;13.632;2023-04-25T07:16:53;99932.97;;;13.63;69.38
34237;BME280;20501;45.956;13.632;2023-04-25T07:19:21;99931.50;;;13.92;68.33
34237;BME280;20501;45.956;13.632;2023-04-25T07:21:47;99936.97;;;13.19;67.87
34237;BME280;20501;45.956;13.632;2023-04-25T07:24:12;99940.44;;;12.88;70.96
34237;BME280;20501;45.956;13.632;2023-04-25T07:26:38;99935.09;;;13.20;70.49
34237;BME280;20501;45.956;13.632;2023-04-25T07:29:03;99936.75;;;14.17;67.71
34237;BME280;20501;45.956;13.632;2023-04-25T07:31:28;99947.72;;;14.00;66.75
34237;BME280;20501;45.956;13.632;2023-04-25T07:33:54;99950.56;;;12.69;70.79
34237;BME280;20501;45.956;13.632;2023-04-25T07:36:19;99946.00;;;13.03;68.75
34237;BME280;20501;45.956;13.632;2023-04-25T07:38:46;99956.06;;;13.51;70.09
34237;BME280;20501;45.956;13.632;2023-04-25T07:41:11;99958.84;;;13.82;68.76
34237;BME280;20501;45.956;13.632;2023-04-25T07:43:36;99959.91;;;14.36;67.15
34237;BME280;20501;45.956;13.632;2023-04-25T07:46:02;99976.00;;;14.37;66.63
34237;BME280;20501;45.956;13.632;2023-04-25T07:48:27;99975.47;;;12.57;71.94
34237;BME280;20501;45.956;13.632;2023-04-25T07:50:53;99975.16;;;12.60;71.81
34237;BME280;20501;45.956;13.632;2023-04-25T07:53:18;99976.16;;;13.16;70.94
34237;BME280;20501;45.956;13.632;2023-04-25T07:55:44;99972.75;;;13.14;70.05
34237;BME280;20501;45.956;13.632;2023-04-25T07:58:10;99971.34;;;13.60;70.03
34237;BME280;20501;45.956;13.632;2023-04-25T08:00:36;99975.63;;;13.05;72.19
34237;BME280;20501;45.956;13.632;2023-04-25T08:03:02;99982.72;;;13.30;71.02
34237;BME280;20501;45.956;13.632;2023-04-25T08:05:28;99977.81;;;13.26;69.26
34237;BME280;20501;45.956;13.632;2023-04-25T08:07:53;99981.41;;;13.10;70.39
34237;BME280;20501;45.956;13.632;2023-04-25T08:10:19;99985.81;;;12.86;69.75
34237;BME280;20501;45.956;13.632;2023-04-25T08:12:44;99989.84;;;13.31;70.02
34237;BME280;20501;45.956;13.632;2023-04-25T08:15:10;99995.13;;;12.75;69.59
34237;BME280;20501;45.956;13.632;2023-04-25T08:17:35;99992.72;;;13.38;70.81
34237;BME280;20501;45.956;13.632;2023-04-25T08:20:01;100007.81;;;13.24;70.38
34237;BME280;20501;45.956;13.632;2023-04-25T08:22:30;100006.50;;;12.87;72.35
34237;BME280;20501;45.956;13.632;2023-04-25T08:24:55;100016.56;;;12.27;74.61
34237;BME280;20501;45.956;13.632;2023-04-25T08:27:21;100009.00;;;12.64;74.00
34237;BME280;20501;45.956;13.632;2023-04-25T08:29:46;100004.63;;;12.88;73.17
34237;BME280;20501;45.956;13.632;2023-04-25T08:32:12;100019.38;;;12.68;73.66
34237;BME280;20501;45.956;13.632;2023-04-25T08:34:37;100014.59;;;13.53;70.79
34237;BME280;20501;45.956;13.632;2023-04-25T08:37:04;100017.84;;;12.99;71.90
34237;BME280;20501;45.956;13.632;2023-04-25T08:39:30;100014.75;;;13.35;72.01
34237;BME280;20501;45.956;13.632;2023-04-25T08:41:56;100018.16;;;12.88;73.11
34237;BME280;20501;45.956;13.632;2023-04-25T08:44:22;100016.47;;;12.78;72.76
34237;BME280;20501;45.956;13.632;2023-04-25T08:46:48;100029.69;;;13.23;72.46
34237;BME280;20501;45.956;13.632;2023-04-25T08:49:17;100031.72;;;12.63;73.34
34237;BME280;20501;45.956;13.632;2023-04-25T08:51:44;100036.63;;;13.25;72.94
34237;BME280;20501;45.956;13.632;2023-04-25T08:54:12;100042.75;;;13.11;73.19
34237;BME280;20501;45.956;13.632;2023-04-25T08:56:44;100042.59;;;13.12;72.98
34237;BME280;20501;45.956;13.632;2023-04-25T08:59:11;100044.78;;;13.09;72.37
34237;BME280;20501;45.956;13.632;2023-04-25T09:01:37;100044.53;;;13.76;70.59
34237;BME280;20501;45.956;13.632;2023-04-25T09:04:02;100049.34;;;13.08;72.29
34237;BME280;20501;45.956;13.632;2023-04-25T09:06:31;100048.94;;;12.53;73.46
34237;BME280;20501;45.956;13.632;2023-04-25T09:09:04;100046.41;;;12.52;74.50
34237;BME280;20501;45.956;13.632;2023-04-25T09:11:31;100047.63;;;12.06;75.16
34237;BME280;20501;45.956;13.632;2023-04-25T09:14:16;100051.38;;;12.73;73.71
34237;BME280;20501;45.956;13.632;2023-04-25T09:19:25;100044.59;;;13.52;70.18
34237;BME280;20501;45.956;13.632;2023-04-25T09:21:53;100048.16;;;13.60;70.62
34237;BME280;20501;45.956;13.632;2023-04-25T09:27:07;100057.13;;;12.87;73.13
34237;BME280;20501;45.956;13.632;2023-04-25T09:29:34;100051.56;;;13.54;71.10
34237;BME280;20501;45.956;13.632;2023-04-25T09:32:20;100057.00;;;12.88;72.89
34237;BME280;20501;45.956;13.632;2023-04-25T09:34:56;100061.03;;;12.92;73.55
34237;BME280;20501;45.956;13.632;2023-04-25T09:39:49;100062.16;;;12.40;75.27
34237;BME280;20501;45.956;13.632;2023-04-25T09:42:16;100067.28;;;12.68;74.69
34237;BME280;20501;45.956;13.632;2023-04-25T09:44:43;100066.94;;;12.63;74.69
34237;BME280;20501;45.956;13.632;2023-04-25T09:47:15;100061.41;;;13.06;73.47
34237;BME280;20501;45.956;13.632;2023-04-25T09:49:46;100056.94;;;12.47;74.99
34237;BME280;20501;45.956;13.632;2023-04-25T09:52:16;100052.31;;;12.39;75.38
34237;BME280;20501;45.956;13.632;2023-04-25T09:54:43;100045.75;;;12.58;74.52
34237;BME280;20501;45.956;13.632;2023-04-25T09:59:43;100045.47;;;12.86;72.60
34237;BME280;20501;45.956;13.632;2023-04-25T10:02:09;100036.31;;;13.20;71.94
34237;BME280;20501;45.956;13.632;2023-04-25T10:04:36;100043.72;;;13.76;70.83
34237;BME280;20501;45.956;13.632;2023-04-25T10:07:05;100043.94;;;13.58;71.32
34237;BME280;20501;45.956;13.632;2023-04-25T10:09:32;100034.91;;;13.74;70.51
34237;BME280;20501;45.956;13.632;2023-04-25T10:12:01;100044.41;;;13.70;71.00
34237;BME280;20501;45.956;13.632;2023-04-25T10:14:30;100045.38;;;13.77;70.74
34237;BME280;20501;45.956;13.632;2023-04-25T10:16:57;100043.97;;;13.98;69.83
34237;BME280;20501;45.956;13.632;2023-04-25T10:19:24;100043.28;;;13.48;70.97
34237;BME280;20501;45.956;13.632;2023-04-25T10:21:58;100049.81;;;12.62;74.14
34237;BME280;20501;45.956;13.632;2023-04-25T10:24:26;100034.78;;;13.09;72.83
34237;BME280;20501;45.956;13.632;2023-04-25T10:26:52;100041.22;;;12.83;73.79
34237;BME280;20501;45.956;13.632;2023-04-25T10:29:22;100031.69;;;12.54;74.24
34237;BME280;20501;45.956;13.632;2023-04-25T10:31:49;100018.84;;;13.48;71.97
34237;BME280;20501;45.956;13.632;2023-04-25T10:34:16;100029.03;;;13.45;69.20
34237;BME280;20501;45.956;13.632;2023-04-25T10:36:42;100032.03;;;13.67;70.75
34237;BME280;20501;45.956;13.632;2023-04-25T10:39:08;100026.47;;;13.52;69.04
34237;BME280;20501;45.956;13.632;2023-04-25T10:41:47;100023.28;;;12.82;70.65
34237;BME280;20501;45.956;13.632;2023-04-25T10:44:14;100020.69;;;13.39;71.54
34237;BME280;20501;45.956;13.632;2023-04-25T10:46:40;100020.00;;;13.37;70.71
34237;BME280;20501;45.956;13.632;2023-04-25T10:49:07;100031.84;;;13.69;70.58
34237;BME280;20501;45.956;13.632;2023-04-25T10:51:34;100032.81;;;13.84;69.86
34237;BME280;20501;45.956;13.632;2023-04-25T10:54:05;100025.25;;;14.43;67.88
34237;BME280;20501;45.956;13.632;2023-04-25T10:56:32;100023.56;;;13.54;70.54
34237;BME280;20501;45.956;13.632;2023-04-25T10:59:19;100023.91;;;13.59;70.13
34237;BME280;20501;45.956;13.632;2023-04-25T11:01:47;100023.22;;;13.57;70.02
34237;BME280;20501;45.956;13.632;2023-04-25T11:09:32;100001.88;;;13.45;70.89
34237;BME280;20501;45.956;13.632;2023-04-25T11:11:58;99998.53;;;13.83;69.75
34237;BME280;20501;45.956;13.632;2023-04-25T11:14:25;100004.91;;;13.59;68.38
34237;BME280;20501;45.956;13.632;2023-04-25T11:16:55;99995.06;;;14.06;68.78
34237;BME280;20501;45.956;13.632;2023-04-25T11:19:21;100002.91;;;13.36;68.90
34237;BME280;20501;45.956;13.632;2023-04-25T11:21:47;100000.88;;;13.22;71.74
34237;BME280;20501;45.956;13.632;2023-04-25T11:24:12;100005.78;;;13.51;69.93
34237;BME280;20501;45.956;13.632;2023-04-25T11:26:38;100003.25;;;13.50;70.13
34237;BME280;20501;45.956;13.632;2023-04-25T11:29:06;100006.50;;;13.85;69.76
34237;BME280;20501;45.956;13.632;2023-04-25T11:31:31;99989.63;;;14.06;68.49
34237;BME280;20501;45.956;13.632;2023-04-25T11:33:57;99995.59;;;13.53;69.75
34237;BME280;20501;45.956;13.632;2023-04-25T11:36:23;99992.00;;;13.61;69.88
34237;BME280;20501;45.956;13.632;2023-04-25T11:38:50;99989.56;;;14.14;68.79
34237;BME280;20501;45.956;13.632;2023-04-25T11:41:17;99989.19;;;13.86;69.89
34237;BME280;20501;45.956;13.632;2023-04-25T11:43:43;99997.81;;;13.50;70.68
34237;BME280;20501;45.956;13.632;2023-04-25T11:46:08;99996.38;;;14.10;69.07
34237;BME280;20501;45.956;13.632;2023-04-25T11:48:41;99995.44;;;13.30;71.44
34237;BME280;20501;45.956;13.632;2023-04-25T11:51:07;99993.72;;;13.29;70.36
34237;BME280;20501;45.956;13.632;2023-04-25T11:53:33;99996.13;;;13.40;70.65
34237;BME280;20501;45.956;13.632;2023-04-25T11:55:59;99995.94;;;13.98;69.37
34237;BME280;20501;45.956;13.632;2023-04-25T11:58:25;99990.00;;;13.46;70.38
34237;BME280;20501;45.956;13.632;2023-04-25T12:00:51;99986.28;;;13.96;69.35
34237;BME280;20501;45.956;13.632;2023-04-25T12:03:17;99986.28;;;13.96;69.13
34237;BME280;20501;45.956;13.632;2023-04-25T12:05:44;99987.47;;;13.93;69.50
34237;BME280;20501;45.956;13.632;2023-04-25T12:08:14;99983.13;;;13.75;68.87
34237;BME280;20501;45.956;13.632;2023-04-25T12:10:41;99971.09;;;13.70;70.47
34237;BME280;20501;45.956;13.632;2023-04-25T12:13:24;99986.72;;;13.68;70.38
34237;BME280;20501;45.956;13.632;2023-04-25T12:15:50;99977.59;;;13.60;71.13
34237;BME280;20501;45.956;13.632;2023-04-25T12:18:28;99976.28;;;13.31;72.27
34237;BME280;20501;45.956;13.632;2023-04-25T12:20:53;99970.69;;;13.41;71.76
34237;BME280;20501;45.956;13.632;2023-04-25T12:23:28;99969.19;;;13.87;70.30
34237;BME280;20501;45.956;13.632;2023-04-25T12:25:53;99961.78;;;14.04;69.72
34237;BME280;20501;45.956;13.632;2023-04-25T12:28:23;99960.63;;;13.58;69.36
34237;BME280;20501;45.956;13.632;2023-04-25T12:33:17;99960.91;;;12.91;73.22
34237;BME280;20501;45.956;13.632;2023-04-25T12:35:42;99957.91;;;13.58;71.44
34237;BME280;20501;45.956;13.632;2023-04-25T12:38:08;99952.38;;;13.19;72.24
34237;BME280;20501;45.956;13.632;2023-04-25T12:40:33;99947.56;;;13.62;69.31
34237;BME280;20501;45.956;13.632;2023-04-25T12:42:59;99946.00;;;13.68;70.18
34237;BME280;20501;45.956;13.632;2023-04-25T12:45:24;99948.56;;;13.69;69.41
34237;BME280;20501;45.956;13.632;2023-04-25T12:47:50;99944.28;;;13.75;69.86
34237;BME280;20501;45.956;13.632;2023-04-25T12:50:15;99940.81;;;13.89;70.19
34237;BME280;20501;45.956;13.632;2023-04-25T12:52:40;99942.59;;;13.09;71.66
34237;BME280;20501;45.956;13.632;2023-04-25T12:55:06;99933.31;;;12.46;73.03
34237;BME280;20501;45.956;13.632;2023-04-25T12:57:31;99937.19;;;12.93;72.46
34237;BME280;20501;45.956;13.632;2023-04-25T12:59:57;99934.22;;;13.84;70.63
34237;BME280;20501;45.956;13.632;2023-04-25T13:02:22;99924.38;;;13.35;72.19